sensor_id;sensor_type;location;lat;lon;timestamp;P1;durP1;ratioP1;P2;durP2;ratioP2
26774;SDS011;14362;51.902;7.626;2023-02-01T00:01:05;18.48;;;3.70;;
26774;SDS011;14362;51.902;7.626;2023-02-01T00:05:08;12.88;;;3.22;;
26774;SDS011;14362;51.902;7.626;2023-02-01T00:09:10;13.07;;;3.78;;
26774;SDS011;14362;51.902;7.626;2023-02-01T00:13:12;14.52;;;3.53;;
26774;SDS011;14362;51.902;7.626;2023-02-01T00:17:13;11.20;;;3.85;;
26774;SDS011;14362;51.902;7.626;2023-02-01T00:21:17;15.18;;;3.90;;
26774;SDS011;14362;51.902;7.626;2023-02-01T00:25:20;21.27;;;4.85;;
26774;SDS011;14362;51.902;7.626;2023-02-01T00:29:21;15.07;;;4.20;;
26774;SDS011;14362;51.902;7.626;2023-02-01T00:33:23;17.25;;;3.83;;
26774;SDS011;14362;51.902;7.626;2023-02-01T00:37:26;21.88;;;4.25;;
26774;SDS011;14362;51.902;7.626;2023-02-01T00:41:28;28.77;;;5.50;;
26774;SDS011;14362;51.902;7.626;2023-02-01T00:45:29;23.27;;;5.30;;
26774;SDS011;14362;51.902;7.626;2023-02-01T00:49:30;16.00;;;4.57;;
26774;SDS011;14362;51.902;7.626;2023-02-01T00:53:34;18.70;;;4.30;;
26774;SDS011;14362;51.902;7.626;2023-02-01T00:57:36;16.65;;;4.93;;
26774;SDS011;14362;51.902;7.626;2023-02-01T01:01:37;19.90;;;4.15;;
26774;SDS011;14362;51.902;7.626;2023-02-01T01:05:39;18.50;;;3.83;;
26774;SDS011;14362;51.902;7.626;2023-02-01T01:09:41;18.75;;;4.40;;
26774;SDS011;14362;51.902;7.626;2023-02-01T01:13:43;20.08;;;4.57;;
26774;SDS011;14362;51.902;7.626;2023-02-01T01:17:47;21.50;;;4.18;;
26774;SDS011;14362;51.902;7.626;2023-02-01T01:21:48;18.80;;;3.58;;
26774;SDS011;14362;51.902;7.626;2023-02-01T01:25:51;15.82;;;4.13;;
26774;SDS011;14362;51.902;7.626;2023-02-01T01:29:52;23.13;;;4.57;;
26774;SDS011;14362;51.902;7.626;2023-02-01T01:33:55;15.10;;;3.45;;
26774;SDS011;14362;51.902;7.626;2023-02-01T01:37:58;14.60;;;3.47;;
26774;SDS011;14362;51.902;7.626;2023-02-01T01:42:01;14.82;;;3.42;;
26774;SDS011;14362;51.902;7.626;2023-02-01T01:46:03;14.55;;;3.92;;
26774;SDS011;14362;51.902;7.626;2023-02-01T01:50:05;14.00;;;3.13;;
26774;SDS011;14362;51.902;7.626;2023-02-01T01:54:09;12.90;;;3.45;;
26774;SDS011;14362;51.902;7.626;2023-02-01T01:58:18;16.55;;;3.75;;
26774;SDS011;14362;51.902;7.626;2023-02-01T02:02:22;12.07;;;3.67;;
26774;SDS011;14362;51.902;7.626;2023-02-01T02:06:28;13.55;;;3.78;;
26774;SDS011;14362;51.902;7.626;2023-02-01T02:10:34;18.63;;;3.55;;
26774;SDS011;14362;51.902;7.626;2023-02-01T02:15:12;15.97;;;2.93;;
26774;SDS011;14362;51.902;7.626;2023-02-01T02:19:24;15.23;;;4.15;;
26774;SDS011;14362;51.902;7.626;2023-02-01T02:23:48;15.75;;;3.40;;
26774;SDS011;14362;51.902;7.626;2023-02-01T02:28:07;14.88;;;3.13;;
26774;SDS011;14362;51.902;7.626;2023-02-01T02:37:09;15.15;;;3.70;;
26774;SDS011;14362;51.902;7.626;2023-02-01T02:41:18;17.45;;;3.13;;
26774;SDS011;14362;51.902;7.626;2023-02-01T02:45:38;15.63;;;2.78;;
26774;SDS011;14362;51.902;7.626;2023-02-01T02:50:05;19.92;;;3.08;;
26774;SDS011;14362;51.902;7.626;2023-02-01T02:54:40;18.20;;;4.07;;
26774;SDS011;14362;51.902;7.626;2023-02-01T02:58:51;13.52;;;3.17;;
26774;SDS011;14362;51.902;7.626;2023-02-01T03:03:11;14.63;;;3.35;;
26774;SDS011;14362;51.902;7.626;2023-02-01T03:07:48;16.73;;;3.58;;
26774;SDS011;14362;51.902;7.626;2023-02-01T03:11:57;14.35;;;3.33;;
26774;SDS011;14362;51.902;7.626;2023-02-01T03:16:22;24.80;;;4.15;;
26774;SDS011;14362;51.902;7.626;2023-02-01T03:20:26;15.65;;;3.65;;
26774;SDS011;14362;51.902;7.626;2023-02-01T03:24:31;15.05;;;3.97;;
26774;SDS011;14362;51.902;7.626;2023-02-01T03:28:37;16.92;;;3.92;;
26774;SDS011;14362;51.902;7.626;2023-02-01T03:32:46;15.20;;;3.50;;
26774;SDS011;14362;51.902;7.626;2023-02-01T03:37:00;13.68;;;3.50;;
26774;SDS011;14362;51.902;7.626;2023-02-01T03:41:08;22.45;;;3.88;;
26774;SDS011;14362;51.902;7.626;2023-02-01T03:45:16;14.85;;;3.65;;
26774;SDS011;14362;51.902;7.626;2023-02-01T03:49:25;11.95;;;3.45;;
26774;SDS011;14362;51.902;7.626;2023-02-01T03:53:30;17.08;;;3.08;;
26774;SDS011;14362;51.902;7.626;2023-02-01T03:57:33;18.92;;;2.95;;
26774;SDS011;14362;51.902;7.626;2023-02-01T04:01:39;21.10;;;2.90;;
26774;SDS011;14362;51.902;7.626;2023-02-01T04:05:41;16.00;;;3.60;;
26774;SDS011;14362;51.902;7.626;2023-02-01T04:09:42;18.05;;;3.30;;
26774;SDS011;14362;51.902;7.626;2023-02-01T04:13:44;16.48;;;3.00;;
26774;SDS011;14362;51.902;7.626;2023-02-01T04:17:47;14.77;;;3.13;;
26774;SDS011;14362;51.902;7.626;2023-02-01T04:21:48;20.83;;;2.95;;
26774;SDS011;14362;51.902;7.626;2023-02-01T04:25:50;19.60;;;3.47;;
26774;SDS011;14362;51.902;7.626;2023-02-01T04:29:51;20.27;;;4.15;;
26774;SDS011;14362;51.902;7.626;2023-02-01T04:33:54;12.05;;;3.20;;
26774;SDS011;14362;51.902;7.626;2023-02-01T04:37:57;20.97;;;3.40;;
26774;SDS011;14362;51.902;7.626;2023-02-01T04:41:58;20.02;;;3.70;;
26774;SDS011;14362;51.902;7.626;2023-02-01T04:46:00;19.63;;;2.70;;
26774;SDS011;14362;51.902;7.626;2023-02-01T04:50:03;12.60;;;3.17;;
26774;SDS011;14362;51.902;7.626;2023-02-01T04:54:07;13.50;;;3.00;;
26774;SDS011;14362;51.902;7.626;2023-02-01T04:58:11;16.27;;;3.53;;
26774;SDS011;14362;51.902;7.626;2023-02-01T05:02:12;21.88;;;3.40;;
26774;SDS011;14362;51.902;7.626;2023-02-01T05:06:15;11.35;;;2.83;;
26774;SDS011;14362;51.902;7.626;2023-02-01T05:10:17;23.48;;;4.00;;
26774;SDS011;14362;51.902;7.626;2023-02-01T05:14:18;22.25;;;3.30;;
26774;SDS011;14362;51.902;7.626;2023-02-01T05:18:19;22.73;;;3.20;;
26774;SDS011;14362;51.902;7.626;2023-02-01T05:22:21;15.80;;;3.72;;
26774;SDS011;14362;51.902;7.626;2023-02-01T05:26:23;24.58;;;3.72;;
26774;SDS011;14362;51.902;7.626;2023-02-01T05:30:25;17.35;;;3.13;;
26774;SDS011;14362;51.902;7.626;2023-02-01T05:34:27;19.77;;;3.60;;
26774;SDS011;14362;51.902;7.626;2023-02-01T05:38:30;20.33;;;3.65;;
26774;SDS011;14362;51.902;7.626;2023-02-01T05:42:31;18.75;;;3.15;;
26774;SDS011;14362;51.902;7.626;2023-02-01T05:46:33;15.90;;;3.03;;
26774;SDS011;14362;51.902;7.626;2023-02-01T05:50:34;20.48;;;3.72;;
26774;SDS011;14362;51.902;7.626;2023-02-01T05:54:37;20.48;;;3.83;;
26774;SDS011;14362;51.902;7.626;2023-02-01T05:58:39;15.05;;;3.53;;
26774;SDS011;14362;51.902;7.626;2023-02-01T06:02:41;19.42;;;3.28;;
26774;SDS011;14362;51.902;7.626;2023-02-01T06:06:42;21.13;;;3.60;;
26774;SDS011;14362;51.902;7.626;2023-02-01T06:10:45;13.95;;;3.15;;
26774;SDS011;14362;51.902;7.626;2023-02-01T06:14:46;13.20;;;2.85;;
26774;SDS011;14362;51.902;7.626;2023-02-01T06:18:48;26.27;;;4.30;;
26774;SDS011;14362;51.902;7.626;2023-02-01T06:22:50;13.52;;;3.45;;
26774;SDS011;14362;51.902;7.626;2023-02-01T06:26:53;17.25;;;3.58;;
26774;SDS011;14362;51.902;7.626;2023-02-01T06:30:55;18.75;;;3.45;;
26774;SDS011;14362;51.902;7.626;2023-02-01T06:34:57;13.35;;;3.05;;
26774;SDS011;14362;51.902;7.626;2023-02-01T06:39:00;16.75;;;4.15;;
26774;SDS011;14362;51.902;7.626;2023-02-01T06:43:03;12.75;;;2.85;;
26774;SDS011;14362;51.902;7.626;2023-02-01T06:47:04;25.73;;;4.55;;
26774;SDS011;14362;51.902;7.626;2023-02-01T06:51:15;14.65;;;4.25;;
26774;SDS011;14362;51.902;7.626;2023-02-01T06:55:20;19.10;;;3.88;;
26774;SDS011;14362;51.902;7.626;2023-02-01T06:59:23;15.25;;;3.50;;
26774;SDS011;14362;51.902;7.626;2023-02-01T07:03:24;12.75;;;3.50;;
26774;SDS011;14362;51.902;7.626;2023-02-01T07:07:25;20.52;;;4.03;;
26774;SDS011;14362;51.902;7.626;2023-02-01T07:11:27;19.73;;;3.53;;
26774;SDS011;14362;51.902;7.626;2023-02-01T07:15:30;14.40;;;3.58;;
26774;SDS011;14362;51.902;7.626;2023-02-01T07:19:31;15.40;;;3.50;;
26774;SDS011;14362;51.902;7.626;2023-02-01T07:23:33;11.98;;;3.20;;
26774;SDS011;14362;51.902;7.626;2023-02-01T07:27:34;23.55;;;4.80;;
26774;SDS011;14362;51.902;7.626;2023-02-01T07:31:37;14.32;;;3.47;;
26774;SDS011;14362;51.902;7.626;2023-02-01T07:35:39;17.65;;;4.22;;
26774;SDS011;14362;51.902;7.626;2023-02-01T07:39:40;28.70;;;3.90;;
26774;SDS011;14362;51.902;7.626;2023-02-01T07:43:42;14.90;;;4.50;;
26774;SDS011;14362;51.902;7.626;2023-02-01T07:47:45;16.13;;;3.75;;
26774;SDS011;14362;51.902;7.626;2023-02-01T07:51:46;25.65;;;4.22;;
26774;SDS011;14362;51.902;7.626;2023-02-01T07:55:48;10.77;;;3.05;;
26774;SDS011;14362;51.902;7.626;2023-02-01T07:59:49;21.48;;;3.90;;
26774;SDS011;14362;51.902;7.626;2023-02-01T08:08:07;22.48;;;3.55;;
26774;SDS011;14362;51.902;7.626;2023-02-01T08:12:08;18.10;;;3.85;;
26774;SDS011;14362;51.902;7.626;2023-02-01T08:16:10;19.35;;;4.30;;
26774;SDS011;14362;51.902;7.626;2023-02-01T08:20:14;21.98;;;4.45;;
26774;SDS011;14362;51.902;7.626;2023-02-01T08:24:16;19.50;;;4.25;;
26774;SDS011;14362;51.902;7.626;2023-02-01T08:28:17;20.63;;;4.05;;
26774;SDS011;14362;51.902;7.626;2023-02-01T08:32:19;16.88;;;4.25;;
26774;SDS011;14362;51.902;7.626;2023-02-01T08:36:22;18.25;;;4.53;;
26774;SDS011;14362;51.902;7.626;2023-02-01T08:40:24;25.57;;;4.50;;
26774;SDS011;14362;51.902;7.626;2023-02-01T08:44:26;16.60;;;3.42;;
26774;SDS011;14362;51.902;7.626;2023-02-01T08:48:27;18.88;;;4.13;;
26774;SDS011;14362;51.902;7.626;2023-02-01T08:52:30;20.33;;;3.60;;
26774;SDS011;14362;51.902;7.626;2023-02-01T08:56:31;14.02;;;3.40;;
26774;SDS011;14362;51.902;7.626;2023-02-01T09:00:33;17.75;;;3.95;;
26774;SDS011;14362;51.902;7.626;2023-02-01T09:04:34;16.45;;;4.78;;
26774;SDS011;14362;51.902;7.626;2023-02-01T09:08:37;16.13;;;3.42;;
26774;SDS011;14362;51.902;7.626;2023-02-01T09:12:39;21.88;;;5.55;;
26774;SDS011;14362;51.902;7.626;2023-02-01T09:16:40;14.15;;;3.42;;
26774;SDS011;14362;51.902;7.626;2023-02-01T09:20:42;19.88;;;3.83;;
26774;SDS011;14362;51.902;7.626;2023-02-01T09:24:45;18.98;;;4.28;;
26774;SDS011;14362;51.902;7.626;2023-02-01T09:28:46;18.52;;;3.60;;
26774;SDS011;14362;51.902;7.626;2023-02-01T09:32:47;13.98;;;3.78;;
26774;SDS011;14362;51.902;7.626;2023-02-01T09:36:49;18.02;;;4.75;;
26774;SDS011;14362;51.902;7.626;2023-02-01T09:40:52;13.68;;;3.47;;
26774;SDS011;14362;51.902;7.626;2023-02-01T09:45:06;13.95;;;3.63;;
26774;SDS011;14362;51.902;7.626;2023-02-01T09:49:17;18.52;;;3.58;;
26774;SDS011;14362;51.902;7.626;2023-02-01T09:53:23;13.50;;;3.78;;
26774;SDS011;14362;51.902;7.626;2023-02-01T09:57:32;14.73;;;3.33;;
26774;SDS011;14362;51.902;7.626;2023-02-01T10:01:43;17.27;;;3.83;;
26774;SDS011;14362;51.902;7.626;2023-02-01T10:05:49;18.80;;;4.55;;
26774;SDS011;14362;51.902;7.626;2023-02-01T10:10:02;20.88;;;4.85;;
26774;SDS011;14362;51.902;7.626;2023-02-01T10:14:12;14.68;;;3.40;;
26774;SDS011;14362;51.902;7.626;2023-02-01T10:18:34;13.27;;;3.13;;
26774;SDS011;14362;51.902;7.626;2023-02-01T10:22:43;13.40;;;3.47;;
26774;SDS011;14362;51.902;7.626;2023-02-01T10:26:47;20.00;;;3.80;;
26774;SDS011;14362;51.902;7.626;2023-02-01T10:30:54;14.93;;;3.53;;
26774;SDS011;14362;51.902;7.626;2023-02-01T10:34:59;17.77;;;3.80;;
26774;SDS011;14362;51.902;7.626;2023-02-01T10:39:02;17.80;;;3.63;;
26774;SDS011;14362;51.902;7.626;2023-02-01T10:43:07;14.25;;;3.53;;
26774;SDS011;14362;51.902;7.626;2023-02-01T10:47:12;20.83;;;4.28;;
26774;SDS011;14362;51.902;7.626;2023-02-01T10:51:15;15.45;;;3.58;;
26774;SDS011;14362;51.902;7.626;2023-02-01T10:55:27;11.23;;;3.60;;
26774;SDS011;14362;51.902;7.626;2023-02-01T10:59:33;12.63;;;3.13;;
26774;SDS011;14362;51.902;7.626;2023-02-01T11:03:38;15.85;;;3.67;;
26774;SDS011;14362;51.902;7.626;2023-02-01T11:07:45;20.15;;;4.32;;
26774;SDS011;14362;51.902;7.626;2023-02-01T11:11:52;20.83;;;4.70;;
26774;SDS011;14362;51.902;7.626;2023-02-01T11:15:56;13.90;;;4.35;;
26774;SDS011;14362;51.902;7.626;2023-02-01T11:20:00;15.77;;;4.03;;
26774;SDS011;14362;51.902;7.626;2023-02-01T11:24:03;19.55;;;4.50;;
26774;SDS011;14362;51.902;7.626;2023-02-01T11:28:09;17.67;;;4.95;;
26774;SDS011;14362;51.902;7.626;2023-02-01T11:32:12;19.17;;;4.85;;
26774;SDS011;14362;51.902;7.626;2023-02-01T11:36:18;19.92;;;4.45;;
26774;SDS011;14362;51.902;7.626;2023-02-01T11:40:23;17.65;;;4.63;;
26774;SDS011;14362;51.902;7.626;2023-02-01T11:44:30;22.45;;;5.07;;
26774;SDS011;14362;51.902;7.626;2023-02-01T11:48:33;19.88;;;4.57;;
26774;SDS011;14362;51.902;7.626;2023-02-01T11:52:40;17.90;;;4.35;;
26774;SDS011;14362;51.902;7.626;2023-02-01T11:56:52;19.15;;;4.75;;
26774;SDS011;14362;51.902;7.626;2023-02-01T12:01:16;15.77;;;4.07;;
26774;SDS011;14362;51.902;7.626;2023-02-01T12:05:34;18.92;;;4.70;;
26774;SDS011;14362;51.902;7.626;2023-02-01T12:09:51;18.15;;;4.88;;
26774;SDS011;14362;51.902;7.626;2023-02-01T12:14:06;17.75;;;4.20;;
26774;SDS011;14362;51.902;7.626;2023-02-01T12:18:26;21.02;;;4.45;;
26774;SDS011;14362;51.902;7.626;2023-02-01T12:22:49;27.85;;;5.63;;
26774;SDS011;14362;51.902;7.626;2023-02-01T12:27:07;18.60;;;4.70;;
26774;SDS011;14362;51.902;7.626;2023-02-01T12:36:07;12.98;;;3.92;;
26774;SDS011;14362;51.902;7.626;2023-02-01T12:40:17;13.93;;;3.58;;
26774;SDS011;14362;51.902;7.626;2023-02-01T12:44:39;15.48;;;4.53;;
26774;SDS011;14362;51.902;7.626;2023-02-01T12:48:48;40.88;;;6.72;;
26774;SDS011;14362;51.902;7.626;2023-02-01T12:52:57;17.98;;;5.70;;
26774;SDS011;14362;51.902;7.626;2023-02-01T12:57:10;17.85;;;4.85;;
26774;SDS011;14362;51.902;7.626;2023-02-01T13:01:18;14.02;;;4.30;;
26774;SDS011;14362;51.902;7.626;2023-02-01T13:05:24;15.30;;;4.05;;
26774;SDS011;14362;51.902;7.626;2023-02-01T13:09:33;15.48;;;4.03;;
26774;SDS011;14362;51.902;7.626;2023-02-01T13:13:44;16.58;;;4.18;;
26774;SDS011;14362;51.902;7.626;2023-02-01T13:17:58;17.90;;;4.43;;
26774;SDS011;14362;51.902;7.626;2023-02-01T13:22:06;12.23;;;4.00;;
26774;SDS011;14362;51.902;7.626;2023-02-01T13:26:12;15.50;;;4.60;;
26774;SDS011;14362;51.902;7.626;2023-02-01T13:30:15;14.13;;;3.83;;
26774;SDS011;14362;51.902;7.626;2023-02-01T13:34:36;14.88;;;4.65;;
26774;SDS011;14362;51.902;7.626;2023-02-01T13:39:24;18.25;;;4.65;;
26774;SDS011;14362;51.902;7.626;2023-02-01T13:43:38;10.52;;;3.80;;
26774;SDS011;14362;51.902;7.626;2023-02-01T13:47:42;13.50;;;3.92;;
26774;SDS011;14362;51.902;7.626;2023-02-01T13:51:48;17.23;;;4.17;;
26774;SDS011;14362;51.902;7.626;2023-02-01T13:55:55;17.60;;;3.92;;
26774;SDS011;14362;51.902;7.626;2023-02-01T14:00:05;13.93;;;3.83;;
26774;SDS011;14362;51.902;7.626;2023-02-01T14:08:46;14.00;;;3.67;;
26774;SDS011;14362;51.902;7.626;2023-02-01T14:13:12;15.73;;;4.28;;
26774;SDS011;14362;51.902;7.626;2023-02-01T14:21:46;16.23;;;4.15;;
26774;SDS011;14362;51.902;7.626;2023-02-01T14:26:02;20.63;;;3.72;;
26774;SDS011;14362;51.902;7.626;2023-02-01T14:30:07;16.42;;;3.80;;
26774;SDS011;14362;51.902;7.626;2023-02-01T14:34:18;14.85;;;3.35;;
26774;SDS011;14362;51.902;7.626;2023-02-01T14:38:22;10.98;;;3.42;;
26774;SDS011;14362;51.902;7.626;2023-02-01T14:42:26;15.57;;;3.92;;
26774;SDS011;14362;51.902;7.626;2023-02-01T14:51:01;15.43;;;3.50;;
26774;SDS011;14362;51.902;7.626;2023-02-01T14:55:05;18.23;;;3.95;;
26774;SDS011;14362;51.902;7.626;2023-02-01T14:59:14;20.73;;;3.90;;
26774;SDS011;14362;51.902;7.626;2023-02-01T15:03:28;13.38;;;3.35;;
26774;SDS011;14362;51.902;7.626;2023-02-01T15:07:39;16.95;;;3.55;;
26774;SDS011;14362;51.902;7.626;2023-02-01T15:11:53;13.82;;;3.53;;
26774;SDS011;14362;51.902;7.626;2023-02-01T15:16:02;20.83;;;4.35;;
26774;SDS011;14362;51.902;7.626;2023-02-01T15:20:12;16.40;;;3.60;;
26774;SDS011;14362;51.902;7.626;2023-02-01T15:24:18;15.15;;;3.30;;
26774;SDS011;14362;51.902;7.626;2023-02-01T15:28:22;22.80;;;3.95;;
26774;SDS011;14362;51.902;7.626;2023-02-01T15:32:29;14.52;;;3.65;;
26774;SDS011;14362;51.902;7.626;2023-02-01T15:36:32;12.30;;;4.10;;
26774;SDS011;14362;51.902;7.626;2023-02-01T15:40:33;21.95;;;4.85;;
26774;SDS011;14362;51.902;7.626;2023-02-01T15:44:37;16.75;;;3.50;;
26774;SDS011;14362;51.902;7.626;2023-02-01T15:48:46;14.43;;;3.47;;
26774;SDS011;14362;51.902;7.626;2023-02-01T15:52:50;19.55;;;3.60;;
26774;SDS011;14362;51.902;7.626;2023-02-01T15:56:55;14.75;;;3.53;;
26774;SDS011;14362;51.902;7.626;2023-02-01T16:01:00;18.50;;;3.63;;
26774;SDS011;14362;51.902;7.626;2023-02-01T16:05:24;19.52;;;3.15;;
26774;SDS011;14362;51.902;7.626;2023-02-01T16:09:37;12.30;;;3.13;;
26774;SDS011;14362;51.902;7.626;2023-02-01T16:13:40;20.80;;;3.85;;
26774;SDS011;14362;51.902;7.626;2023-02-01T16:17:42;16.40;;;3.67;;
26774;SDS011;14362;51.902;7.626;2023-02-01T16:21:45;17.25;;;4.18;;
26774;SDS011;14362;51.902;7.626;2023-02-01T16:25:46;13.98;;;2.90;;
26774;SDS011;14362;51.902;7.626;2023-02-01T16:29:48;12.98;;;3.05;;
26774;SDS011;14362;51.902;7.626;2023-02-01T16:33:50;16.77;;;3.03;;
26774;SDS011;14362;51.902;7.626;2023-02-01T16:37:53;14.68;;;2.88;;
26774;SDS011;14362;51.902;7.626;2023-02-01T16:41:55;11.02;;;3.25;;
26774;SDS011;14362;51.902;7.626;2023-02-01T16:45:58;10.23;;;2.90;;
26774;SDS011;14362;51.902;7.626;2023-02-01T16:50:02;11.10;;;2.78;;
26774;SDS011;14362;51.902;7.626;2023-02-01T16:54:05;13.13;;;3.47;;
26774;SDS011;14362;51.902;7.626;2023-02-01T16:58:09;14.07;;;3.53;;
26774;SDS011;14362;51.902;7.626;2023-02-01T17:02:10;23.70;;;3.75;;
26774;SDS011;14362;51.902;7.626;2023-02-01T17:06:14;16.20;;;4.45;;
26774;SDS011;14362;51.902;7.626;2023-02-01T17:10:20;20.52;;;4.07;;
26774;SDS011;14362;51.902;7.626;2023-02-01T17:14:24;17.15;;;3.90;;
26774;SDS011;14362;51.902;7.626;2023-02-01T17:18:26;11.40;;;2.58;;
26774;SDS011;14362;51.902;7.626;2023-02-01T17:22:30;7.18;;;2.35;;
26774;SDS011;14362;51.902;7.626;2023-02-01T17:26:33;9.88;;;2.80;;
26774;SDS011;14362;51.902;7.626;2023-02-01T17:30:34;5.78;;;2.50;;
26774;SDS011;14362;51.902;7.626;2023-02-01T17:34:37;11.98;;;2.72;;
26774;SDS011;14362;51.902;7.626;2023-02-01T17:38:39;7.75;;;2.15;;
26774;SDS011;14362;51.902;7.626;2023-02-01T17:42:42;6.65;;;2.38;;
26774;SDS011;14362;51.902;7.626;2023-02-01T17:46:43;7.50;;;2.00;;
26774;SDS011;14362;51.902;7.626;2023-02-01T17:50:45;11.48;;;1.90;;
26774;SDS011;14362;51.902;7.626;2023-02-01T17:54:51;5.65;;;1.90;;
26774;SDS011;14362;51.902;7.626;2023-02-01T17:58:54;12.00;;;2.55;;
26774;SDS011;14362;51.902;7.626;2023-02-01T18:02:56;15.10;;;3.33;;
26774;SDS011;14362;51.902;7.626;2023-02-01T18:06:57;12.15;;;2.75;;
26774;SDS011;14362;51.902;7.626;2023-02-01T18:10:59;11.75;;;2.47;;
26774;SDS011;14362;51.902;7.626;2023-02-01T18:15:08;8.18;;;2.58;;
26774;SDS011;14362;51.902;7.626;2023-02-01T18:19:15;10.23;;;2.40;;
26774;SDS011;14362;51.902;7.626;2023-02-01T18:23:17;11.82;;;2.67;;
26774;SDS011;14362;51.902;7.626;2023-02-01T18:27:20;12.07;;;2.83;;
26774;SDS011;14362;51.902;7.626;2023-02-01T18:31:26;10.43;;;3.30;;
26774;SDS011;14362;51.902;7.626;2023-02-01T18:35:32;8.70;;;3.00;;
26774;SDS011;14362;51.902;7.626;2023-02-01T18:39:33;10.13;;;3.22;;
26774;SDS011;14362;51.902;7.626;2023-02-01T18:43:36;14.13;;;3.42;;
26774;SDS011;14362;51.902;7.626;2023-02-01T18:47:39;14.82;;;3.25;;
26774;SDS011;14362;51.902;7.626;2023-02-01T18:51:40;11.10;;;3.60;;
26774;SDS011;14362;51.902;7.626;2023-02-01T18:55:43;5.45;;;1.80;;
26774;SDS011;14362;51.902;7.626;2023-02-01T18:59:44;9.40;;;1.75;;
26774;SDS011;14362;51.902;7.626;2023-02-01T19:03:47;4.63;;;1.23;;
26774;SDS011;14362;51.902;7.626;2023-02-01T19:07:49;2.47;;;0.93;;
26774;SDS011;14362;51.902;7.626;2023-02-01T19:11:51;6.32;;;1.35;;
26774;SDS011;14362;51.902;7.626;2023-02-01T19:15:52;8.98;;;1.23;;
26774;SDS011;14362;51.902;7.626;2023-02-01T19:19:55;5.88;;;1.83;;
26774;SDS011;14362;51.902;7.626;2023-02-01T19:23:58;7.68;;;1.20;;
26774;SDS011;14362;51.902;7.626;2023-02-01T19:27:59;7.93;;;1.65;;
26774;SDS011;14362;51.902;7.626;2023-02-01T19:32:00;10.07;;;1.48;;
26774;SDS011;14362;51.902;7.626;2023-02-01T19:36:04;8.23;;;1.52;;
26774;SDS011;14362;51.902;7.626;2023-02-01T19:40:09;6.18;;;1.30;;
26774;SDS011;14362;51.902;7.626;2023-02-01T19:44:12;6.30;;;1.75;;
26774;SDS011;14362;51.902;7.626;2023-02-01T19:48:14;4.68;;;1.42;;
26774;SDS011;14362;51.902;7.626;2023-02-01T19:52:18;5.78;;;1.58;;
26774;SDS011;14362;51.902;7.626;2023-02-01T19:56:19;8.73;;;2.25;;
26774;SDS011;14362;51.902;7.626;2023-02-01T20:00:21;13.88;;;2.65;;
26774;SDS011;14362;51.902;7.626;2023-02-01T20:04:23;10.45;;;2.33;;
26774;SDS011;14362;51.902;7.626;2023-02-01T20:08:27;7.78;;;2.22;;
26774;SDS011;14362;51.902;7.626;2023-02-01T20:12:28;9.02;;;2.80;;
26774;SDS011;14362;51.902;7.626;2023-02-01T20:16:30;11.13;;;2.40;;
26774;SDS011;14362;51.902;7.626;2023-02-01T20:20:31;10.27;;;2.63;;
26774;SDS011;14362;51.902;7.626;2023-02-01T20:24:34;10.35;;;3.65;;
26774;SDS011;14362;51.902;7.626;2023-02-01T20:28:35;15.48;;;2.92;;
26774;SDS011;14362;51.902;7.626;2023-02-01T20:32:37;10.68;;;3.25;;
26774;SDS011;14362;51.902;7.626;2023-02-01T20:36:41;8.32;;;3.03;;
26774;SDS011;14362;51.902;7.626;2023-02-01T20:40:44;9.52;;;2.92;;
26774;SDS011;14362;51.902;7.626;2023-02-01T20:44:45;9.65;;;3.17;;
26774;SDS011;14362;51.902;7.626;2023-02-01T20:48:47;9.15;;;3.00;;
26774;SDS011;14362;51.902;7.626;2023-02-01T20:52:50;12.02;;;2.88;;
26774;SDS011;14362;51.902;7.626;2023-02-01T20:56:52;7.78;;;3.33;;
26774;SDS011;14362;51.902;7.626;2023-02-01T21:00:54;13.77;;;3.15;;
26774;SDS011;14362;51.902;7.626;2023-02-01T21:04:55;15.30;;;3.65;;
26774;SDS011;14362;51.902;7.626;2023-02-01T21:08:57;16.77;;;4.15;;
26774;SDS011;14362;51.902;7.626;2023-02-01T21:13:00;20.35;;;4.35;;
26774;SDS011;14362;51.902;7.626;2023-02-01T21:17:01;17.67;;;4.25;;
26774;SDS011;14362;51.902;7.626;2023-02-01T21:21:03;13.85;;;4.20;;
26774;SDS011;14362;51.902;7.626;2023-02-01T21:25:05;12.77;;;3.50;;
26774;SDS011;14362;51.902;7.626;2023-02-01T21:29:10;11.15;;;3.65;;
26774;SDS011;14362;51.902;7.626;2023-02-01T21:33:12;17.35;;;3.60;;
26774;SDS011;14362;51.902;7.626;2023-02-01T21:37:14;17.80;;;4.57;;
26774;SDS011;14362;51.902;7.626;2023-02-01T21:41:16;17.52;;;4.40;;
26774;SDS011;14362;51.902;7.626;2023-02-01T21:45:37;19.98;;;3.80;;
26774;SDS011;14362;51.902;7.626;2023-02-01T21:49:39;16.00;;;3.40;;
26774;SDS011;14362;51.902;7.626;2023-02-01T21:53:40;23.20;;;3.35;;
26774;SDS011;14362;51.902;7.626;2023-02-01T21:57:42;17.70;;;3.35;;
26774;SDS011;14362;51.902;7.626;2023-02-01T22:01:44;10.15;;;3.13;;
26774;SDS011;14362;51.902;7.626;2023-02-01T22:05:48;15.35;;;3.13;;
26774;SDS011;14362;51.902;7.626;2023-02-01T22:09:49;20.67;;;3.22;;
26774;SDS011;14362;51.902;7.626;2023-02-01T22:13:51;15.70;;;2.97;;
26774;SDS011;14362;51.902;7.626;2023-02-01T22:17:54;10.55;;;3.53;;
26774;SDS011;14362;51.902;7.626;2023-02-01T22:21:55;17.20;;;3.10;;
26774;SDS011;14362;51.902;7.626;2023-02-01T22:25:58;8.57;;;2.42;;
26774;SDS011;14362;51.902;7.626;2023-02-01T22:30:00;5.00;;;2.17;;
26774;SDS011;14362;51.902;7.626;2023-02-01T22:34:02;5.95;;;2.38;;
26774;SDS011;14362;51.902;7.626;2023-02-01T22:38:04;14.82;;;2.92;;
26774;SDS011;14362;51.902;7.626;2023-02-01T22:42:05;19.52;;;3.10;;
26774;SDS011;14362;51.902;7.626;2023-02-01T22:46:09;9.27;;;2.60;;
26774;SDS011;14362;51.902;7.626;2023-02-01T22:50:13;9.90;;;2.45;;
26774;SDS011;14362;51.902;7.626;2023-02-01T22:54:15;13.05;;;2.92;;
26774;SDS011;14362;51.902;7.626;2023-02-01T22:58:20;14.63;;;3.55;;
26774;SDS011;14362;51.902;7.626;2023-02-01T23:02:21;14.40;;;2.15;;
26774;SDS011;14362;51.902;7.626;2023-02-01T23:06:24;9.35;;;2.45;;
26774;SDS011;14362;51.902;7.626;2023-02-01T23:10:26;13.18;;;2.42;;
26774;SDS011;14362;51.902;7.626;2023-02-01T23:14:28;10.70;;;2.00;;
26774;SDS011;14362;51.902;7.626;2023-02-01T23:18:29;11.13;;;2.05;;
26774;SDS011;14362;51.902;7.626;2023-02-01T23:22:32;11.75;;;1.88;;
26774;SDS011;14362;51.902;7.626;2023-02-01T23:26:33;8.23;;;1.85;;
26774;SDS011;14362;51.902;7.626;2023-02-01T23:30:35;15.18;;;2.20;;
26774;SDS011;14362;51.902;7.626;2023-02-01T23:34:36;7.50;;;1.83;;
26774;SDS011;14362;51.902;7.626;2023-02-01T23:38:40;7.35;;;1.50;;
26774;SDS011;14362;51.902;7.626;2023-02-01T23:42:42;13.45;;;2.25;;
26774;SDS011;14362;51.902;7.626;2023-02-01T23:47:04;14.57;;;2.78;;
26774;SDS011;14362;51.902;7.626;2023-02-01T23:51:05;8.43;;;2.00;;
26774;SDS011;14362;51.902;7.626;2023-02-01T23:55:08;12.15;;;2.38;;
26774;SDS011;14362;51.902;7.626;2023-02-01T23:59:10;10.70;;;1.55;;
